Mercer County (BLF)

 

Airport Diagram
No Airport Diagram Available
Current Weather/Forecast (MVFR Conditions)
METAR KBLF 071225Z AUTO 29007KT 8SM -RA SCT004 BKN010 OVC014 05/04 A2994 RMK AO2 P0004 T00500039
TAF KBLF 071120Z 0712/0812 25007KT P6SM -RA VCSH OVC040 TEMPO 0712/0716 3SM -SHRA BR OVC015 FM071600 29013G23KT P6SM VCSH OVC013 FM072000 30015G25KT P6SM BKN015 FM080100 30017G27KT P6SM -RA VCSH OVC010

Airport Information

All Charts
General
Chart Name View
TAKEOFF MINIMUMS
ALTERNATE MINIMUMS

Departures
Chart Name Download
OBERS FOUR

Approaches
Chart Name Download
ILS OR LOC RWY 23
RNAV (GPS) RWY 05
RNAV (GPS) RWY 23
VOR RWY 23


Airport Statistics
Departures Arrivals Local
All Collected Stats since June 2016: 16 21 0
2021 Stats: 3 3 0
May Stats: 0 0 0

Inbound Traffic (Arrivals) - 0

No inbound traffic.


Outbound Traffic (Departures) - 0

No outbound traffic.


Local Traffic (Pattern) - 0

No local traffic.